ANA9196 RJBB-RJOK
Flight info
| Callsign | ANA9196 |
|---|---|
| Flight time | 0h 23m |
| Altitude | 14000 |
| Route | OBLUR Y236 VEXOT Y756 KRE |
| Aircraft | A20N/M-SDE2E3FGHIRWXY/LB1 |
Departure
| Time | 2026-04-30 12:40 |
|---|---|
| Airport | Kansai International Airport (RJBB) |
Arrival
| Time | 2026-04-30 13:03 |
|---|---|
| Airport | Kochi Ryoma Airport (RJOK) |
| Time | Latitude | Longitude | Altitude | Speed | Heading |
|---|---|---|---|---|---|
| 2026-04-30 12:38 | 34.43343 | 135.24659 | 21 ft | 0 kts | 40° |
| 2026-04-30 12:38 | 34.43355 | 135.24673 | 18 ft | 10 kts | 49° |
| 2026-04-30 12:38 | 34.43396 | 135.24743 | 18 ft | 10 kts | 54° |
| 2026-04-30 12:39 | 34.43434 | 135.24814 | 18 ft | 10 kts | 75° |
| 2026-04-30 12:39 | 34.43418 | 135.24867 | 22 ft | 0 kts | 132° |
| 2026-04-30 12:39 | 34.43369 | 135.24909 | 21 ft | 36 kts | 144° |
| 2026-04-30 12:39 | 34.43202 | 135.25061 | 29 ft | 17 kts | 169° |
| 2026-04-30 12:40 | 34.43159 | 135.25042 | 26 ft | 5 kts | 231° |
| 2026-04-30 12:40 | 34.42904 | 135.24671 | 18 ft | 106 kts | 230° |
| 2026-04-30 12:40 | 34.42269 | 135.23726 | 120 ft | 168 kts | 230° |
| 2026-04-30 12:40 | 34.40718 | 135.21025 | 1631 ft | 196 kts | 236° |
| 2026-04-30 12:41 | 34.37202 | 135.14622 | 4849 ft | 240 kts | 228° |
| 2026-04-30 12:41 | 34.35026 | 135.06637 | 8898 ft | 279 kts | 284° |
| 2026-04-30 12:41 | 34.38225 | 134.97268 | 11542 ft | 335 kts | 288° |
| 2026-04-30 12:41 | 34.38054 | 134.86257 | 13569 ft | 376 kts | 238° |
| 2026-04-30 12:42 | 34.32313 | 134.74532 | 14719 ft | 407 kts | 239° |
| 2026-04-30 12:42 | 34.26252 | 134.63132 | 15923 ft | 419 kts | 230° |
| 2026-04-30 12:42 | 34.18791 | 134.52519 | 17058 ft | 418 kts | 232° |
| 2026-04-30 12:42 | 34.14577 | 134.46435 | 16775 ft | 406 kts | 230° |
| 2026-04-30 12:43 | 34.10981 | 134.41274 | 16281 ft | 382 kts | 230° |
| 2026-04-30 12:43 | 34.04986 | 134.32608 | 14324 ft | 390 kts | 231° |
| 2026-04-30 12:43 | 34.01227 | 134.27123 | 13998 ft | 388 kts | 231° |
| 2026-04-30 12:43 | 33.97763 | 134.22095 | 13938 ft | 388 kts | 231° |
| 2026-04-30 12:44 | 33.94308 | 134.17094 | 13931 ft | 390 kts | 231° |
| 2026-04-30 12:44 | 33.90845 | 134.12086 | 13934 ft | 387 kts | 230° |
| 2026-04-30 12:44 | 33.87374 | 134.07079 | 13934 ft | 389 kts | 230° |
| 2026-04-30 12:44 | 33.83906 | 134.02076 | 13941 ft | 388 kts | 230° |
| 2026-04-30 12:45 | 33.79756 | 133.97987 | 13931 ft | 390 kts | 207° |
| 2026-04-30 12:45 | 33.74808 | 133.96023 | 13537 ft | 355 kts | 199° |
| 2026-04-30 12:45 | 33.70246 | 133.94459 | 12165 ft | 333 kts | 198° |
| 2026-04-30 12:45 | 33.63750 | 133.92210 | 9348 ft | 330 kts | 197° |
| 2026-04-30 12:46 | 33.58497 | 133.90369 | 6987 ft | 329 kts | 193° |
| 2026-04-30 12:46 | 33.55088 | 133.89187 | 5479 ft | 329 kts | 192° |
| 2026-04-30 12:46 | 33.52886 | 133.88430 | 4481 ft | 329 kts | 191° |
| 2026-04-30 12:46 | 33.50686 | 133.87676 | 3641 ft | 325 kts | 191° |
| 2026-04-30 12:47 | 33.48556 | 133.86942 | 3215 ft | 309 kts | 191° |
| 2026-04-30 12:47 | 33.46572 | 133.86254 | 3050 ft | 285 kts | 191° |
| 2026-04-30 12:47 | 33.44776 | 133.85496 | 2998 ft | 266 kts | 205° |
| 2026-04-30 12:47 | 33.43453 | 133.84026 | 2747 ft | 258 kts | 233° |
| 2026-04-30 12:48 | 33.42876 | 133.82054 | 2201 ft | 249 kts | 265° |
| 2026-04-30 12:48 | 33.43172 | 133.80088 | 1627 ft | 234 kts | 301° |
| 2026-04-30 12:48 | 33.44183 | 133.78793 | 1460 ft | 194 kts | 336° |
| 2026-04-30 12:48 | 33.45288 | 133.78167 | 1405 ft | 161 kts | 344° |
| 2026-04-30 12:49 | 33.46221 | 133.77645 | 1400 ft | 134 kts | 340° |
| 2026-04-30 12:49 | 33.46945 | 133.77115 | 1366 ft | 115 kts | 333° |
| 2026-04-30 12:49 | 33.47699 | 133.76464 | 1684 ft | 142 kts | 329° |
| 2026-04-30 12:49 | 33.48451 | 133.75639 | 2220 ft | 149 kts | 319° |
| 2026-04-30 12:50 | 33.49133 | 133.74704 | 2799 ft | 151 kts | 315° |
| 2026-04-30 12:50 | 33.49822 | 133.73697 | 3274 ft | 163 kts | 314° |
| 2026-04-30 12:50 | 33.50604 | 133.72573 | 3043 ft | 195 kts | 315° |
| 2026-04-30 12:50 | 33.51488 | 133.71355 | 2404 ft | 193 kts | 315° |
| 2026-04-30 12:51 | 33.52400 | 133.70125 | 1329 ft | 205 kts | 315° |
| 2026-04-30 12:51 | 33.53310 | 133.68781 | 403 ft | 198 kts | 308° |
| 2026-04-30 12:51 | 33.54115 | 133.67601 | 86 ft | 163 kts | 312° |
| 2026-04-30 12:51 | 33.54890 | 133.66602 | 737 ft | 158 kts | 318° |
| 2026-04-30 12:52 | 33.55628 | 133.65638 | 1382 ft | 165 kts | 294° |
| 2026-04-30 12:52 | 33.55580 | 133.64253 | 1871 ft | 180 kts | 239° |
| 2026-04-30 12:52 | 33.54604 | 133.63372 | 2364 ft | 179 kts | 188° |
| 2026-04-30 12:52 | 33.53374 | 133.63199 | 2763 ft | 178 kts | 174° |
| 2026-04-30 12:53 | 33.52116 | 133.63210 | 2818 ft | 186 kts | 171° |
| 2026-04-30 12:53 | 33.50675 | 133.63289 | 2919 ft | 225 kts | 171° |
| 2026-04-30 12:53 | 33.49079 | 133.63380 | 2920 ft | 232 kts | 171° |
| 2026-04-30 12:53 | 33.47455 | 133.63383 | 2915 ft | 237 kts | 183° |
| 2026-04-30 12:54 | 33.45937 | 133.62571 | 2921 ft | 252 kts | 213° |
| 2026-04-30 12:54 | 33.44693 | 133.61010 | 2916 ft | 257 kts | 224° |
| 2026-04-30 12:54 | 33.43542 | 133.59409 | 2918 ft | 256 kts | 221° |
| 2026-04-30 12:54 | 33.42280 | 133.57900 | 2914 ft | 256 kts | 215° |
| 2026-04-30 12:55 | 33.40900 | 133.56599 | 2914 ft | 248 kts | 201° |
| 2026-04-30 12:55 | 33.39312 | 133.56021 | 2914 ft | 234 kts | 174° |
| 2026-04-30 12:55 | 33.37772 | 133.56374 | 2909 ft | 221 kts | 148° |
| 2026-04-30 12:55 | 33.36597 | 133.57481 | 2914 ft | 219 kts | 125° |
| 2026-04-30 12:56 | 33.35925 | 133.59200 | 2910 ft | 234 kts | 101° |
| 2026-04-30 12:56 | 33.35997 | 133.61140 | 2918 ft | 240 kts | 78° |
| 2026-04-30 12:56 | 33.36485 | 133.63052 | 2907 ft | 238 kts | 76° |
| 2026-04-30 12:56 | 33.36809 | 133.64291 | 2910 ft | 234 kts | 77° |
| 2026-04-30 12:57 | 33.37292 | 133.66161 | 2900 ft | 234 kts | 77° |
| 2026-04-30 12:57 | 33.37761 | 133.68028 | 2911 ft | 236 kts | 77° |
| 2026-04-30 12:57 | 33.38227 | 133.69898 | 2906 ft | 229 kts | 77° |
| 2026-04-30 12:57 | 33.38662 | 133.71629 | 2906 ft | 202 kts | 78° |
| 2026-04-30 12:58 | 33.39036 | 133.73109 | 2900 ft | 170 kts | 78° |
| 2026-04-30 12:58 | 33.39355 | 133.74390 | 2946 ft | 159 kts | 79° |
| 2026-04-30 12:58 | 33.39651 | 133.75597 | 2914 ft | 145 kts | 79° |
| 2026-04-30 12:58 | 33.39928 | 133.76761 | 2914 ft | 146 kts | 79° |
| 2026-04-30 12:59 | 33.40209 | 133.77927 | 2909 ft | 144 kts | 79° |
| 2026-04-30 12:59 | 33.40544 | 133.79300 | 2855 ft | 146 kts | 79° |
| 2026-04-30 12:59 | 33.41135 | 133.81653 | 2067 ft | 158 kts | 70° |
| 2026-04-30 12:59 | 33.42871 | 133.82752 | 1400 ft | 186 kts | 358° |
| 2026-04-30 13:00 | 33.44004 | 133.82037 | 1324 ft | 194 kts | 318° |
| 2026-04-30 13:00 | 33.44897 | 133.80793 | 1294 ft | 198 kts | 311° |
| 2026-04-30 13:00 | 33.45744 | 133.79490 | 1316 ft | 201 kts | 311° |
| 2026-04-30 13:00 | 33.46620 | 133.78165 | 1316 ft | 202 kts | 312° |
| 2026-04-30 13:01 | 33.47507 | 133.76888 | 1335 ft | 198 kts | 314° |
| 2026-04-30 13:01 | 33.48390 | 133.75650 | 1411 ft | 196 kts | 314° |
| 2026-04-30 13:01 | 33.49279 | 133.74406 | 1416 ft | 196 kts | 313° |
| 2026-04-30 13:01 | 33.50183 | 133.73138 | 1220 ft | 201 kts | 313° |
| 2026-04-30 13:02 | 33.51063 | 133.71905 | 927 ft | 187 kts | 313° |
| 2026-04-30 13:02 | 33.51862 | 133.70786 | 676 ft | 168 kts | 312° |
| 2026-04-30 13:02 | 33.52577 | 133.69783 | 465 ft | 148 kts | 312° |
| 2026-04-30 13:02 | 33.53202 | 133.68908 | 277 ft | 130 kts | 312° |
| 2026-04-30 13:03 | 33.53758 | 133.68109 | 88 ft | 119 kts | 311° |
| 2026-04-30 13:03 | 33.54238 | 133.67452 | 31 ft | 72 kts | 310° |
| 2026-04-30 13:03 | 33.54505 | 133.67085 | 37 ft | 53 kts | 312° |
| 2026-04-30 13:03 | 33.54704 | 133.66803 | 38 ft | 17 kts | 311° |
| 2026-04-30 13:04 | 33.54785 | 133.66779 | 40 ft | 12 kts | 32° |
| 2026-04-30 13:04 | 33.54851 | 133.66852 | 41 ft | 14 kts | 59° |
| 2026-04-30 13:04 | 33.54828 | 133.66932 | 40 ft | 12 kts | 129° |
| 2026-04-30 13:04 | 33.54767 | 133.67023 | 39 ft | 16 kts | 128° |
| 2026-04-30 13:05 | 33.54732 | 133.67070 | 38 ft | 6 kts | 134° |
| 2026-04-30 13:05 | 33.54700 | 133.67115 | 36 ft | 6 kts | 130° |
| 2026-04-30 13:05 | 33.54684 | 133.67137 | 38 ft | 8 kts | 130° |
| 2026-04-30 13:06 | 33.54603 | 133.67245 | 35 ft | 10 kts | 130° |
| 2026-04-30 13:06 | 33.54579 | 133.67303 | 36 ft | 7 kts | 77° |
| 2026-04-30 13:06 | 33.54609 | 133.67338 | 36 ft | 7 kts | 39° |
| 2026-04-30 13:06 | 33.54644 | 133.67374 | 36 ft | 7 kts | 40° |
| 2026-04-30 13:07 | 33.54674 | 133.67403 | 35 ft | 0 kts | 39° |
| 2026-04-30 13:07 | 33.54678 | 133.67407 | 35 ft | 0 kts | 39° |